createdAt,value
2022-09-05T04:00:33.269Z,21.34
2022-09-05T04:08:18.541Z,21.37
2022-09-05T04:10:34.294Z,21.36
2022-09-05T04:15:33.081Z,21.33
2022-09-05T04:20:36.215Z,21.25
2022-09-05T04:25:33.978Z,21.19
2022-09-05T04:30:38.883Z,21.22
2022-09-05T04:35:33.868Z,21.24
2022-09-05T04:40:33.251Z,21.21
2022-09-05T04:45:32.768Z,21.20
2022-09-05T04:50:37.689Z,21.16
2022-09-05T04:55:33.646Z,21.08
2022-09-05T05:05:58.759Z,20.93
2022-09-05T05:06:13.727Z,21.12
2022-09-05T05:13:28.288Z,21.07
2022-09-05T05:18:12.505Z,21.13
2022-09-05T05:20:42.019Z,21.30
2022-09-05T05:25:33.321Z,21.34
2022-09-05T05:30:32.270Z,21.47
2022-09-05T05:35:32.215Z,21.60
2022-09-05T05:40:43.939Z,22.18
2022-09-05T05:45:33.101Z,24.88
2022-09-05T05:50:32.053Z,26.75
2022-09-05T05:55:51.487Z,26.73
2022-09-05T06:00:32.993Z,26.86
2022-09-05T06:05:31.882Z,27.81
2022-09-05T06:14:50.738Z,26.40
2022-09-05T06:15:33.432Z,26.63
2022-09-05T06:22:11.590Z,27.76
2022-09-05T06:25:32.664Z,28.52
2022-09-05T06:30:31.611Z,28.98
2022-09-05T06:35:31.569Z,28.99
2022-09-05T06:40:32.286Z,28.95
2022-09-05T06:45:31.455Z,29.79
2022-09-05T06:50:31.403Z,30.19
2022-09-05T06:55:32.344Z,30.34
2022-09-05T07:00:31.357Z,30.86
2022-09-05T07:05:42.685Z,30.98
2022-09-05T07:10:39.024Z,31.05
2022-09-05T07:15:32.131Z,30.87
2022-09-05T07:20:31.073Z,30.72
2022-09-05T07:25:33.181Z,31.36
2022-09-05T07:30:31.970Z,32.21
2022-09-05T07:35:34.689Z,32.01
2022-09-05T07:40:31.993Z,31.92
2022-09-05T07:45:30.832Z,31.17
2022-09-05T07:54:48.704Z,30.37
2022-09-05T07:57:03.720Z,30.36
2022-09-05T08:00:31.655Z,29.79
2022-09-05T08:05:34.995Z,30.33
2022-09-05T08:11:03.017Z,31.17
2022-09-05T08:16:04.300Z,32.33
2022-09-05T08:20:31.438Z,32.16
2022-09-05T08:25:42.859Z,32.36
2022-09-05T08:30:31.329Z,32.85
2022-09-05T08:35:30.279Z,34.06
2022-09-05T08:40:30.226Z,33.65
2022-09-05T08:46:43.475Z,34.61
2022-09-05T08:50:31.119Z,34.19
2022-09-05T08:55:30.071Z,34.23
2022-09-05T09:00:31.568Z,33.75
2022-09-05T09:06:12.870Z,34.63
2022-09-05T09:10:30.962Z,34.10
2022-09-05T09:15:29.857Z,33.51
2022-09-05T09:20:29.830Z,33.03
2022-09-05T09:25:34.002Z,32.47
2022-09-05T09:30:29.702Z,31.96
2022-09-05T09:35:29.650Z,31.94
2022-09-05T09:40:29.596Z,31.30
2022-09-05T09:45:29.825Z,31.44
2022-09-05T09:50:29.491Z,31.51
2022-09-05T09:55:29.437Z,31.61
2022-09-05T10:00:29.389Z,31.43
2022-09-05T10:10:39.227Z,31.48
2022-09-05T10:10:51.122Z,31.29
2022-09-05T10:16:40.769Z,31.45
2022-09-05T10:21:40.720Z,31.83
2022-09-05T10:26:40.669Z,31.83
2022-09-05T10:34:23.475Z,31.83
2022-09-05T10:36:41.566Z,31.89
2022-09-05T10:41:40.518Z,30.94
2022-09-05T10:46:50.704Z,31.43
2022-09-05T10:51:41.414Z,32.20
2022-09-05T10:56:40.357Z,32.46
2022-09-05T11:02:27.376Z,32.81
2022-09-05T11:06:41.253Z,32.85
2022-09-05T11:11:40.276Z,32.33
2022-09-05T11:16:40.267Z,31.01
2022-09-05T11:21:40.099Z,32.15
2022-09-05T11:26:40.046Z,32.39
2022-09-05T11:32:44.835Z,32.91
2022-09-05T11:40:06.271Z,33.35
2022-09-05T11:41:40.967Z,32.65
2022-09-05T11:46:39.876Z,32.96
2022-09-05T11:51:39.792Z,32.73
2022-09-05T11:56:45.784Z,32.61
2022-09-05T12:01:43.594Z,32.65
2022-09-05T12:06:49.574Z,32.31
2022-09-05T12:11:43.337Z,32.30
2022-09-05T12:16:39.579Z,33.00
2022-09-05T12:21:39.789Z,32.17
2022-09-05T12:27:44.934Z,32.70
2022-09-05T12:33:40.839Z,32.75
2022-09-05T12:40:03.139Z,32.90
2022-09-05T12:42:14.907Z,32.65
2022-09-05T12:46:40.238Z,33.04
2022-09-05T12:51:46.684Z,33.10
2022-09-05T12:59:30.032Z,33.19
2022-09-05T13:03:11.271Z,32.67
2022-09-05T13:06:40.106Z,32.85
2022-09-05T13:14:56.435Z,32.42
2022-09-05T13:16:39.988Z,33.16
2022-09-05T13:21:38.857Z,32.98
2022-09-05T13:26:38.818Z,32.82
2022-09-05T13:38:03.552Z,33.05
2022-09-05T13:38:17.618Z,33.08
2022-09-05T13:41:39.653Z,32.28
2022-09-05T13:46:38.730Z,32.15
2022-09-05T13:51:38.564Z,32.15
2022-09-05T13:56:38.514Z,31.79
2022-09-05T14:01:38.549Z,32.12
2022-09-05T14:06:47.184Z,32.79
2022-09-05T14:11:44.896Z,32.28
2022-09-05T14:16:42.000Z,32.31
2022-09-05T14:21:39.254Z,32.75
2022-09-05T14:26:38.204Z,32.76
2022-09-05T14:37:37.322Z,32.60
2022-09-05T14:37:53.015Z,32.89
2022-09-05T14:41:39.976Z,32.40
2022-09-05T14:46:39.081Z,32.65
2022-09-05T14:51:39.173Z,32.16
2022-09-05T14:59:51.129Z,31.30
2022-09-05T15:02:54.992Z,31.27
2022-09-05T15:06:38.778Z,31.16
2022-09-05T15:12:28.591Z,31.21
2022-09-05T15:16:38.924Z,31.38
2022-09-05T15:21:37.637Z,31.57
2022-09-05T15:26:37.588Z,31.82
2022-09-05T15:31:37.529Z,32.68
2022-09-05T15:36:37.476Z,32.68
2022-09-05T15:41:43.139Z,32.19
2022-09-05T15:46:38.379Z,31.57
2022-09-05T15:51:38.085Z,31.35
2022-09-05T15:56:37.273Z,31.22
2022-09-05T16:01:59.998Z,30.84
2022-09-05T16:10:39.977Z,30.34
2022-09-05T16:12:09.156Z,30.31
2022-09-05T16:23:14.685Z,30.25
2022-09-05T16:23:34.269Z,30.49
2022-09-05T16:27:49.512Z,30.75
2022-09-05T16:32:51.181Z,30.79
2022-09-05T16:37:48.403Z,30.63
2022-09-05T16:42:48.347Z,30.39
2022-09-05T16:47:48.291Z,30.29
2022-09-05T16:52:53.462Z,30.14
2022-09-05T16:57:48.208Z,30.02
2022-09-05T17:02:48.136Z,29.88
2022-09-05T17:07:48.086Z,29.66
2022-09-05T17:12:48.026Z,29.46
2022-09-05T17:18:19.519Z,29.21
2022-09-05T17:24:16.856Z,29.07
2022-09-05T17:29:33.146Z,28.92
2022-09-05T17:32:48.838Z,28.67
2022-09-05T17:37:47.756Z,28.51
2022-09-05T17:42:47.703Z,28.40
2022-09-05T17:47:47.651Z,28.24
2022-09-05T17:52:47.600Z,28.07
2022-09-05T17:57:47.549Z,27.94
2022-09-05T18:02:47.493Z,27.81
2022-09-05T18:07:47.437Z,27.57
2022-09-05T18:13:13.054Z,27.48
2022-09-05T18:17:48.334Z,27.36
2022-09-05T18:22:47.287Z,27.06
2022-09-05T18:28:04.746Z,26.73
2022-09-05T18:32:53.342Z,26.55
2022-09-05T18:37:48.122Z,26.49
2022-09-05T18:42:47.061Z,26.51
2022-09-05T18:47:52.846Z,26.56
2022-09-05T18:52:46.948Z,26.64
2022-09-05T18:57:46.893Z,26.50
2022-09-05T19:02:51.526Z,26.51
2022-09-05T19:07:48.038Z,26.49
2022-09-05T19:12:53.695Z,26.54
2022-09-05T19:17:47.677Z,26.60
2022-09-05T19:23:08.999Z,26.47
2022-09-05T19:34:02.246Z,26.43
2022-09-05T19:36:57.367Z,26.47
2022-09-05T19:37:49.426Z,26.29
2022-09-05T19:47:25.948Z,26.23
2022-09-05T19:48:04.030Z,26.04
2022-09-05T19:52:47.291Z,25.76
2022-09-05T19:57:46.235Z,25.64
2022-09-05T20:02:51.261Z,25.69
2022-09-05T20:07:48.057Z,25.69
2022-09-05T20:12:46.075Z,25.56
2022-09-05T20:17:46.021Z,25.56
2022-09-05T20:22:49.111Z,25.51
2022-09-05T20:27:46.147Z,25.38
2022-09-05T20:32:45.864Z,25.35
2022-09-05T20:43:17.698Z,25.36
2022-09-05T20:43:21.751Z,25.32
2022-09-05T20:54:00.955Z,25.13
2022-09-05T20:54:15.844Z,24.97
2022-09-05T20:57:46.598Z,24.91
2022-09-05T21:02:45.733Z,24.97
2022-09-05T21:07:45.478Z,24.97
2022-09-05T21:12:45.430Z,24.86
2022-09-05T21:17:45.373Z,24.71
2022-09-05T21:22:45.316Z,24.56
2022-09-05T21:27:45.260Z,24.36
2022-09-05T21:32:45.210Z,24.51
2022-09-05T21:37:45.151Z,24.60
2022-09-05T21:43:40.848Z,24.58
2022-09-05T21:47:52.195Z,24.65
2022-09-05T21:53:08.391Z,24.55
2022-09-05T21:59:26.708Z,24.41
2022-09-05T22:02:46.048Z,24.29
2022-09-05T22:07:44.824Z,24.27
2022-09-05T22:12:44.767Z,24.28
2022-09-05T22:17:44.721Z,24.24
2022-09-05T22:22:45.294Z,24.12
2022-09-05T22:27:45.608Z,23.99
2022-09-05T22:32:44.558Z,23.92
2022-09-05T22:37:44.502Z,23.87
2022-09-05T22:42:44.444Z,24.03
2022-09-05T22:47:44.395Z,24.00
2022-09-05T22:52:44.334Z,23.97
2022-09-05T22:57:44.288Z,23.85
2022-09-05T23:02:46.117Z,23.86
2022-09-05T23:07:44.178Z,23.79
2022-09-05T23:12:44.118Z,23.78
2022-09-05T23:17:44.072Z,23.85
2022-09-05T23:22:44.016Z,23.86
2022-09-05T23:27:43.961Z,23.96
